sensor_id;sensor_type;location;lat;lon;timestamp;P1;durP1;ratioP1;P2;durP2;ratioP2
37451;SDS011;23314;51.114;6.900;2023-06-10T06:55:48;12.10;;;6.90;;
37451;SDS011;23314;51.114;6.900;2023-06-10T06:58:14;10.02;;;6.65;;
37451;SDS011;23314;51.114;6.900;2023-06-10T07:00:39;6.60;;;6.10;;
37451;SDS011;23314;51.114;6.900;2023-06-10T07:03:04;6.07;;;5.57;;
37451;SDS011;23314;51.114;6.900;2023-06-10T07:05:30;7.53;;;6.18;;
37451;SDS011;23314;51.114;6.900;2023-06-10T07:07:56;7.57;;;5.47;;
37451;SDS011;23314;51.114;6.900;2023-06-10T07:10:24;6.25;;;5.68;;
37451;SDS011;23314;51.114;6.900;2023-06-10T07:12:51;8.25;;;5.70;;
37451;SDS011;23314;51.114;6.900;2023-06-10T07:15:16;9.30;;;5.63;;
37451;SDS011;23314;51.114;6.900;2023-06-10T07:17:42;6.80;;;5.60;;
37451;SDS011;23314;51.114;6.900;2023-06-10T07:20:08;8.20;;;5.67;;
37451;SDS011;23314;51.114;6.900;2023-06-10T07:22:33;10.38;;;5.78;;
37451;SDS011;23314;51.114;6.900;2023-06-10T07:24:59;8.63;;;6.35;;
37451;SDS011;23314;51.114;6.900;2023-06-10T07:27:24;7.03;;;6.28;;
37451;SDS011;23314;51.114;6.900;2023-06-10T07:29:50;9.18;;;5.85;;
37451;SDS011;23314;51.114;6.900;2023-06-10T07:32:16;10.52;;;6.55;;
37451;SDS011;23314;51.114;6.900;2023-06-10T07:34:41;6.50;;;5.90;;
37451;SDS011;23314;51.114;6.900;2023-06-10T07:37:06;6.38;;;5.75;;
37451;SDS011;23314;51.114;6.900;2023-06-10T07:39:32;7.43;;;5.93;;
37451;SDS011;23314;51.114;6.900;2023-06-10T07:41:57;9.75;;;6.18;;
37451;SDS011;23314;51.114;6.900;2023-06-10T07:44:23;11.05;;;5.88;;
37451;SDS011;23314;51.114;6.900;2023-06-10T07:46:48;6.40;;;5.88;;
37451;SDS011;23314;51.114;6.900;2023-06-10T07:49:14;6.47;;;5.88;;
37451;SDS011;23314;51.114;6.900;2023-06-10T07:51:40;6.40;;;5.80;;
37451;SDS011;23314;51.114;6.900;2023-06-10T07:54:05;6.97;;;6.30;;
37451;SDS011;23314;51.114;6.900;2023-06-10T07:56:31;8.07;;;5.93;;
37451;SDS011;23314;51.114;6.900;2023-06-10T07:58:56;7.50;;;6.80;;
37451;SDS011;23314;51.114;6.900;2023-06-10T08:01:22;6.60;;;5.93;;
37451;SDS011;23314;51.114;6.900;2023-06-10T08:03:48;12.13;;;5.78;;
37451;SDS011;23314;51.114;6.900;2023-06-10T08:06:14;6.55;;;5.93;;
37451;SDS011;23314;51.114;6.900;2023-06-10T08:08:39;7.90;;;5.82;;
37451;SDS011;23314;51.114;6.900;2023-06-10T08:11:08;12.85;;;5.50;;
37451;SDS011;23314;51.114;6.900;2023-06-10T08:13:35;7.18;;;6.20;;
37451;SDS011;23314;51.114;6.900;2023-06-10T08:16:01;6.78;;;6.07;;
37451;SDS011;23314;51.114;6.900;2023-06-10T08:18:26;7.28;;;6.50;;
37451;SDS011;23314;51.114;6.900;2023-06-10T08:20:51;6.78;;;5.93;;
37451;SDS011;23314;51.114;6.900;2023-06-10T08:23:17;7.63;;;6.10;;
37451;SDS011;23314;51.114;6.900;2023-06-10T08:25:42;10.77;;;6.55;;
37451;SDS011;23314;51.114;6.900;2023-06-10T08:28:08;6.78;;;6.10;;
37451;SDS011;23314;51.114;6.900;2023-06-10T08:30:40;6.72;;;6.07;;
37451;SDS011;23314;51.114;6.900;2023-06-10T08:33:12;6.78;;;6.18;;
37451;SDS011;23314;51.114;6.900;2023-06-10T08:35:37;10.13;;;6.32;;
37451;SDS011;23314;51.114;6.900;2023-06-10T08:38:02;8.55;;;6.22;;
37451;SDS011;23314;51.114;6.900;2023-06-10T08:40:27;7.85;;;5.60;;
37451;SDS011;23314;51.114;6.900;2023-06-10T08:42:58;8.18;;;6.30;;
37451;SDS011;23314;51.114;6.900;2023-06-10T08:45:29;8.73;;;6.40;;
37451;SDS011;23314;51.114;6.900;2023-06-10T08:48:00;7.47;;;6.68;;
37451;SDS011;23314;51.114;6.900;2023-06-10T08:50:29;7.00;;;6.28;;
37451;SDS011;23314;51.114;6.900;2023-06-10T08:52:57;8.38;;;6.90;;
37451;SDS011;23314;51.114;6.900;2023-06-10T08:55:29;9.50;;;6.72;;
37451;SDS011;23314;51.114;6.900;2023-06-10T08:57:57;8.23;;;6.35;;
37451;SDS011;23314;51.114;6.900;2023-06-10T09:00:27;11.43;;;6.40;;
37451;SDS011;23314;51.114;6.900;2023-06-10T09:02:53;7.05;;;6.40;;
37451;SDS011;23314;51.114;6.900;2023-06-10T09:05:19;7.55;;;6.13;;
37451;SDS011;23314;51.114;6.900;2023-06-10T09:07:45;7.95;;;6.25;;
37451;SDS011;23314;51.114;6.900;2023-06-10T09:10:11;6.80;;;6.10;;
37451;SDS011;23314;51.114;6.900;2023-06-10T09:12:36;10.25;;;6.68;;
37451;SDS011;23314;51.114;6.900;2023-06-10T09:15:03;6.57;;;6.00;;
37451;SDS011;23314;51.114;6.900;2023-06-10T09:17:29;7.00;;;6.40;;
37451;SDS011;23314;51.114;6.900;2023-06-10T09:19:55;10.15;;;6.38;;
37451;SDS011;23314;51.114;6.900;2023-06-10T09:22:22;9.43;;;7.25;;
37451;SDS011;23314;51.114;6.900;2023-06-10T09:24:48;11.20;;;7.13;;
37451;SDS011;23314;51.114;6.900;2023-06-10T09:27:14;7.78;;;6.75;;
37451;SDS011;23314;51.114;6.900;2023-06-10T09:29:45;12.55;;;6.93;;
37451;SDS011;23314;51.114;6.900;2023-06-10T09:32:20;7.07;;;6.38;;
37451;SDS011;23314;51.114;6.900;2023-06-10T09:34:45;8.50;;;6.68;;
37451;SDS011;23314;51.114;6.900;2023-06-10T09:37:11;7.00;;;6.30;;
37451;SDS011;23314;51.114;6.900;2023-06-10T09:39:38;8.18;;;7.00;;
37451;SDS011;23314;51.114;6.900;2023-06-10T09:42:17;7.38;;;6.72;;
37451;SDS011;23314;51.114;6.900;2023-06-10T09:44:48;8.95;;;7.07;;
37451;SDS011;23314;51.114;6.900;2023-06-10T09:47:19;8.88;;;7.20;;
37451;SDS011;23314;51.114;6.900;2023-06-10T09:49:45;7.82;;;6.97;;
37451;SDS011;23314;51.114;6.900;2023-06-10T09:52:11;8.05;;;7.13;;
37451;SDS011;23314;51.114;6.900;2023-06-10T09:54:36;7.57;;;6.82;;
37451;SDS011;23314;51.114;6.900;2023-06-10T09:57:02;8.73;;;7.65;;
37451;SDS011;23314;51.114;6.900;2023-06-10T09:59:32;9.23;;;7.50;;
37451;SDS011;23314;51.114;6.900;2023-06-10T10:01:59;9.25;;;7.18;;
37451;SDS011;23314;51.114;6.900;2023-06-10T10:04:25;12.07;;;7.15;;
37451;SDS011;23314;51.114;6.900;2023-06-10T10:06:52;7.90;;;7.10;;
37451;SDS011;23314;51.114;6.900;2023-06-10T10:09:17;10.23;;;7.28;;
37451;SDS011;23314;51.114;6.900;2023-06-10T10:11:43;9.63;;;7.30;;
37451;SDS011;23314;51.114;6.900;2023-06-10T10:14:09;8.57;;;7.40;;
37451;SDS011;23314;51.114;6.900;2023-06-10T10:16:36;8.63;;;7.13;;
37451;SDS011;23314;51.114;6.900;2023-06-10T10:19:16;9.27;;;7.10;;
37451;SDS011;23314;51.114;6.900;2023-06-10T10:22:01;8.23;;;7.38;;
37451;SDS011;23314;51.114;6.900;2023-06-10T10:24:33;7.45;;;6.75;;
37451;SDS011;23314;51.114;6.900;2023-06-10T10:27:05;7.63;;;6.97;;
37451;SDS011;23314;51.114;6.900;2023-06-10T10:29:37;8.90;;;7.45;;
37451;SDS011;23314;51.114;6.900;2023-06-10T10:32:04;7.60;;;6.90;;
37451;SDS011;23314;51.114;6.900;2023-06-10T10:37:36;7.25;;;6.55;;
37451;SDS011;23314;51.114;6.900;2023-06-10T10:40:01;7.85;;;6.97;;
37451;SDS011;23314;51.114;6.900;2023-06-10T10:42:28;8.00;;;7.13;;
37451;SDS011;23314;51.114;6.900;2023-06-10T10:44:54;8.68;;;6.97;;
37451;SDS011;23314;51.114;6.900;2023-06-10T10:47:21;7.78;;;7.10;;
37451;SDS011;23314;51.114;6.900;2023-06-10T10:49:47;7.18;;;6.53;;
37451;SDS011;23314;51.114;6.900;2023-06-10T10:52:16;9.27;;;6.82;;
37451;SDS011;23314;51.114;6.900;2023-06-10T10:54:43;6.70;;;6.20;;
37451;SDS011;23314;51.114;6.900;2023-06-10T10:57:10;7.32;;;6.65;;
37451;SDS011;23314;51.114;6.900;2023-06-10T10:59:57;9.95;;;7.07;;
37451;SDS011;23314;51.114;6.900;2023-06-10T11:02:42;9.02;;;7.60;;
37451;SDS011;23314;51.114;6.900;2023-06-10T11:05:10;7.10;;;6.35;;
37451;SDS011;23314;51.114;6.900;2023-06-10T11:07:39;12.60;;;6.50;;
37451;SDS011;23314;51.114;6.900;2023-06-10T11:10:11;7.68;;;6.88;;
37451;SDS011;23314;51.114;6.900;2023-06-10T11:15:23;8.20;;;6.22;;
37451;SDS011;23314;51.114;6.900;2023-06-10T11:31:23;8.98;;;6.15;;
37451;SDS011;23314;51.114;6.900;2023-06-10T11:33:52;7.18;;;6.07;;
37451;SDS011;23314;51.114;6.900;2023-06-10T11:36:18;6.47;;;5.78;;
37451;SDS011;23314;51.114;6.900;2023-06-10T11:38:43;7.60;;;6.97;;
37451;SDS011;23314;51.114;6.900;2023-06-10T11:41:09;10.00;;;8.82;;
37451;SDS011;23314;51.114;6.900;2023-06-10T11:43:36;8.10;;;7.28;;
37451;SDS011;23314;51.114;6.900;2023-06-10T11:46:05;8.25;;;6.95;;
37451;SDS011;23314;51.114;6.900;2023-06-10T11:48:33;9.07;;;6.50;;
37451;SDS011;23314;51.114;6.900;2023-06-10T11:50:58;8.63;;;6.82;;
37451;SDS011;23314;51.114;6.900;2023-06-10T11:53:24;6.40;;;5.93;;
37451;SDS011;23314;51.114;6.900;2023-06-10T11:55:50;8.90;;;6.30;;
37451;SDS011;23314;51.114;6.900;2023-06-10T11:58:22;8.40;;;6.25;;
37451;SDS011;23314;51.114;6.900;2023-06-10T12:00:48;11.57;;;6.43;;
37451;SDS011;23314;51.114;6.900;2023-06-10T12:03:15;6.75;;;6.00;;
37451;SDS011;23314;51.114;6.900;2023-06-10T12:05:54;7.80;;;5.93;;
37451;SDS011;23314;51.114;6.900;2023-06-10T12:08:19;8.43;;;5.93;;
37451;SDS011;23314;51.114;6.900;2023-06-10T12:10:44;7.10;;;5.93;;
37451;SDS011;23314;51.114;6.900;2023-06-10T12:13:10;8.57;;;5.82;;
37451;SDS011;23314;51.114;6.900;2023-06-10T12:15:36;6.97;;;5.80;;
37451;SDS011;23314;51.114;6.900;2023-06-10T12:18:02;8.32;;;6.13;;
37451;SDS011;23314;51.114;6.900;2023-06-10T12:20:28;7.72;;;5.80;;
37451;SDS011;23314;51.114;6.900;2023-06-10T12:22:56;6.70;;;6.20;;
37451;SDS011;23314;51.114;6.900;2023-06-10T12:25:26;7.93;;;6.40;;
37451;SDS011;23314;51.114;6.900;2023-06-10T12:27:55;7.22;;;6.53;;
37451;SDS011;23314;51.114;6.900;2023-06-10T12:30:23;6.47;;;5.95;;
37451;SDS011;23314;51.114;6.900;2023-06-10T12:32:51;6.80;;;6.18;;
37451;SDS011;23314;51.114;6.900;2023-06-10T12:35:21;8.98;;;6.13;;
37451;SDS011;23314;51.114;6.900;2023-06-10T12:40:30;6.40;;;5.90;;
37451;SDS011;23314;51.114;6.900;2023-06-10T12:42:57;6.80;;;6.15;;
37451;SDS011;23314;51.114;6.900;2023-06-10T12:45:30;7.18;;;6.43;;
37451;SDS011;23314;51.114;6.900;2023-06-10T12:48:16;8.23;;;6.07;;
37451;SDS011;23314;51.114;6.900;2023-06-10T12:50:56;6.43;;;5.93;;
37451;SDS011;23314;51.114;6.900;2023-06-10T12:53:22;6.85;;;6.18;;
37451;SDS011;23314;51.114;6.900;2023-06-10T12:55:49;6.65;;;6.05;;
37451;SDS011;23314;51.114;6.900;2023-06-10T12:58:15;6.57;;;5.97;;
37451;SDS011;23314;51.114;6.900;2023-06-10T13:00:40;6.85;;;6.00;;
37451;SDS011;23314;51.114;6.900;2023-06-10T13:03:07;6.88;;;6.25;;
37451;SDS011;23314;51.114;6.900;2023-06-10T13:05:34;6.72;;;6.05;;
37451;SDS011;23314;51.114;6.900;2023-06-10T13:08:02;8.15;;;5.97;;
37451;SDS011;23314;51.114;6.900;2023-06-10T13:10:27;6.55;;;6.05;;
37451;SDS011;23314;51.114;6.900;2023-06-10T13:12:53;8.25;;;5.90;;
37451;SDS011;23314;51.114;6.900;2023-06-10T13:15:19;6.70;;;6.00;;
37451;SDS011;23314;51.114;6.900;2023-06-10T13:17:45;7.18;;;6.00;;
37451;SDS011;23314;51.114;6.900;2023-06-10T13:20:14;6.63;;;6.03;;
37451;SDS011;23314;51.114;6.900;2023-06-10T13:22:43;9.13;;;6.45;;
37451;SDS011;23314;51.114;6.900;2023-06-10T13:25:08;6.03;;;5.53;;
37451;SDS011;23314;51.114;6.900;2023-06-10T13:27:34;6.20;;;5.63;;
37451;SDS011;23314;51.114;6.900;2023-06-10T13:30:03;8.02;;;5.60;;
37451;SDS011;23314;51.114;6.900;2023-06-10T13:32:29;6.03;;;5.47;;
37451;SDS011;23314;51.114;6.900;2023-06-10T13:34:54;7.40;;;5.90;;
37451;SDS011;23314;51.114;6.900;2023-06-10T13:37:20;5.80;;;5.30;;
37451;SDS011;23314;51.114;6.900;2023-06-10T13:39:45;6.25;;;5.60;;
37451;SDS011;23314;51.114;6.900;2023-06-10T13:42:16;9.52;;;5.40;;
37451;SDS011;23314;51.114;6.900;2023-06-10T13:44:42;5.97;;;5.18;;
37451;SDS011;23314;51.114;6.900;2023-06-10T13:47:07;6.03;;;5.55;;
37451;SDS011;23314;51.114;6.900;2023-06-10T13:49:33;5.70;;;5.18;;
37451;SDS011;23314;51.114;6.900;2023-06-10T13:51:58;7.38;;;5.95;;
37451;SDS011;23314;51.114;6.900;2023-06-10T13:54:23;6.22;;;5.68;;
37451;SDS011;23314;51.114;6.900;2023-06-10T13:56:49;7.80;;;5.75;;
37451;SDS011;23314;51.114;6.900;2023-06-10T13:59:14;7.40;;;5.72;;
37451;SDS011;23314;51.114;6.900;2023-06-10T14:01:40;6.57;;;5.18;;
37451;SDS011;23314;51.114;6.900;2023-06-10T14:04:06;7.85;;;5.85;;
37451;SDS011;23314;51.114;6.900;2023-06-10T14:06:32;7.43;;;6.05;;
37451;SDS011;23314;51.114;6.900;2023-06-10T14:08:58;6.05;;;5.57;;
37451;SDS011;23314;51.114;6.900;2023-06-10T14:11:27;8.98;;;5.43;;
37451;SDS011;23314;51.114;6.900;2023-06-10T14:13:52;5.85;;;5.28;;
37451;SDS011;23314;51.114;6.900;2023-06-10T14:16:17;7.55;;;5.20;;
37451;SDS011;23314;51.114;6.900;2023-06-10T14:18:43;9.05;;;5.90;;
37451;SDS011;23314;51.114;6.900;2023-06-10T14:21:08;7.32;;;5.60;;
37451;SDS011;23314;51.114;6.900;2023-06-10T14:23:34;6.03;;;5.53;;
37451;SDS011;23314;51.114;6.900;2023-06-10T14:25:59;6.22;;;5.53;;
37451;SDS011;23314;51.114;6.900;2023-06-10T14:28:25;8.65;;;5.28;;
37451;SDS011;23314;51.114;6.900;2023-06-10T14:30:52;6.43;;;5.70;;
37451;SDS011;23314;51.114;6.900;2023-06-10T14:33:18;7.50;;;5.68;;
37451;SDS011;23314;51.114;6.900;2023-06-10T14:35:43;6.28;;;5.68;;
37451;SDS011;23314;51.114;6.900;2023-06-10T14:38:09;8.32;;;6.05;;
37451;SDS011;23314;51.114;6.900;2023-06-10T14:40:35;6.70;;;5.90;;
37451;SDS011;23314;51.114;6.900;2023-06-10T14:43:11;6.00;;;5.47;;
37451;SDS011;23314;51.114;6.900;2023-06-10T14:45:37;9.38;;;6.05;;
37451;SDS011;23314;51.114;6.900;2023-06-10T14:48:04;6.30;;;5.70;;
37451;SDS011;23314;51.114;6.900;2023-06-10T14:50:30;7.88;;;6.05;;
37451;SDS011;23314;51.114;6.900;2023-06-10T14:52:55;7.82;;;6.78;;
37451;SDS011;23314;51.114;6.900;2023-06-10T14:55:21;6.85;;;6.25;;
37451;SDS011;23314;51.114;6.900;2023-06-10T14:57:48;6.00;;;5.40;;
37451;SDS011;23314;51.114;6.900;2023-06-10T15:00:13;8.85;;;6.25;;
37451;SDS011;23314;51.114;6.900;2023-06-10T15:02:40;7.93;;;6.22;;
37451;SDS011;23314;51.114;6.900;2023-06-10T15:05:06;9.25;;;6.38;;
37451;SDS011;23314;51.114;6.900;2023-06-10T15:07:31;6.50;;;5.90;;
37451;SDS011;23314;51.114;6.900;2023-06-10T15:09:57;7.25;;;5.85;;
37451;SDS011;23314;51.114;6.900;2023-06-10T15:12:22;7.68;;;6.07;;
37451;SDS011;23314;51.114;6.900;2023-06-10T15:14:48;7.13;;;5.93;;
37451;SDS011;23314;51.114;6.900;2023-06-10T15:17:13;6.85;;;6.03;;
37451;SDS011;23314;51.114;6.900;2023-06-10T15:19:38;6.40;;;5.70;;
37451;SDS011;23314;51.114;6.900;2023-06-10T15:22:04;7.28;;;5.78;;
37451;SDS011;23314;51.114;6.900;2023-06-10T15:24:29;5.75;;;5.22;;
37451;SDS011;23314;51.114;6.900;2023-06-10T15:26:54;8.73;;;5.97;;
37451;SDS011;23314;51.114;6.900;2023-06-10T15:29:20;7.88;;;5.03;;
37451;SDS011;23314;51.114;6.900;2023-06-10T15:31:45;6.40;;;5.55;;
37451;SDS011;23314;51.114;6.900;2023-06-10T15:34:11;5.93;;;5.38;;
37451;SDS011;23314;51.114;6.900;2023-06-10T15:36:36;6.22;;;5.63;;
37451;SDS011;23314;51.114;6.900;2023-06-10T15:39:03;6.00;;;5.40;;
37451;SDS011;23314;51.114;6.900;2023-06-10T15:41:31;7.38;;;5.70;;
37451;SDS011;23314;51.114;6.900;2023-06-10T15:43:56;6.57;;;5.03;;
37451;SDS011;23314;51.114;6.900;2023-06-10T15:46:24;7.40;;;5.00;;
37451;SDS011;23314;51.114;6.900;2023-06-10T15:48:50;5.43;;;4.97;;
37451;SDS011;23314;51.114;6.900;2023-06-10T15:51:15;6.53;;;4.47;;
37451;SDS011;23314;51.114;6.900;2023-06-10T15:53:41;7.65;;;5.35;;
37451;SDS011;23314;51.114;6.900;2023-06-10T15:56:06;6.80;;;5.35;;
37451;SDS011;23314;51.114;6.900;2023-06-10T15:58:31;5.03;;;4.55;;
37451;SDS011;23314;51.114;6.900;2023-06-10T16:00:57;7.38;;;4.65;;
37451;SDS011;23314;51.114;6.900;2023-06-10T16:03:22;4.80;;;4.40;;
37451;SDS011;23314;51.114;6.900;2023-06-10T16:05:47;5.57;;;4.90;;
37451;SDS011;23314;51.114;6.900;2023-06-10T16:08:13;9.18;;;4.80;;
37451;SDS011;23314;51.114;6.900;2023-06-10T16:10:38;9.05;;;5.28;;
37451;SDS011;23314;51.114;6.900;2023-06-10T16:13:04;5.68;;;4.82;;
37451;SDS011;23314;51.114;6.900;2023-06-10T16:15:29;6.95;;;4.78;;
37451;SDS011;23314;51.114;6.900;2023-06-10T16:17:54;8.40;;;5.22;;
37451;SDS011;23314;51.114;6.900;2023-06-10T16:20:20;7.10;;;4.78;;
37451;SDS011;23314;51.114;6.900;2023-06-10T16:22:46;5.68;;;5.10;;
37451;SDS011;23314;51.114;6.900;2023-06-10T16:25:11;9.27;;;4.80;;
37451;SDS011;23314;51.114;6.900;2023-06-10T16:27:36;8.05;;;4.85;;
37451;SDS011;23314;51.114;6.900;2023-06-10T16:30:02;7.80;;;4.63;;
37451;SDS011;23314;51.114;6.900;2023-06-10T16:32:27;5.07;;;4.72;;
37451;SDS011;23314;51.114;6.900;2023-06-10T16:34:53;9.20;;;4.53;;
37451;SDS011;23314;51.114;6.900;2023-06-10T16:37:18;6.65;;;4.63;;
37451;SDS011;23314;51.114;6.900;2023-06-10T16:39:43;4.68;;;4.15;;
37451;SDS011;23314;51.114;6.900;2023-06-10T16:42:09;5.60;;;4.05;;
37451;SDS011;23314;51.114;6.900;2023-06-10T16:44:34;4.78;;;4.30;;
37451;SDS011;23314;51.114;6.900;2023-06-10T16:47:00;5.80;;;4.63;;
37451;SDS011;23314;51.114;6.900;2023-06-10T16:49:25;5.20;;;4.78;;
37451;SDS011;23314;51.114;6.900;2023-06-10T16:51:50;4.38;;;3.97;;
37451;SDS011;23314;51.114;6.900;2023-06-10T16:54:15;6.00;;;4.50;;
37451;SDS011;23314;51.114;6.900;2023-06-10T16:56:41;5.03;;;4.47;;
37451;SDS011;23314;51.114;6.900;2023-06-10T16:59:06;4.50;;;4.10;;
37451;SDS011;23314;51.114;6.900;2023-06-10T17:01:31;4.88;;;4.13;;
37451;SDS011;23314;51.114;6.900;2023-06-10T17:03:57;5.43;;;4.50;;
37451;SDS011;23314;51.114;6.900;2023-06-10T17:06:22;4.82;;;4.07;;
37451;SDS011;23314;51.114;6.900;2023-06-10T17:08:47;5.00;;;4.35;;
37451;SDS011;23314;51.114;6.900;2023-06-10T17:11:13;5.88;;;4.60;;
37451;SDS011;23314;51.114;6.900;2023-06-10T17:13:38;8.60;;;4.32;;
37451;SDS011;23314;51.114;6.900;2023-06-10T17:16:04;4.47;;;4.07;;
37451;SDS011;23314;51.114;6.900;2023-06-10T17:18:29;7.22;;;4.10;;
37451;SDS011;23314;51.114;6.900;2023-06-10T17:20:54;5.07;;;4.50;;
37451;SDS011;23314;51.114;6.900;2023-06-10T17:23:20;4.70;;;4.30;;
37451;SDS011;23314;51.114;6.900;2023-06-10T17:25:45;9.77;;;4.57;;
37451;SDS011;23314;51.114;6.900;2023-06-10T17:28:10;4.70;;;4.32;;
37451;SDS011;23314;51.114;6.900;2023-06-10T17:30:36;4.82;;;4.43;;
37451;SDS011;23314;51.114;6.900;2023-06-10T17:33:01;5.82;;;4.20;;
37451;SDS011;23314;51.114;6.900;2023-06-10T17:35:26;4.43;;;4.13;;
37451;SDS011;23314;51.114;6.900;2023-06-10T17:37:52;5.68;;;4.40;;
37451;SDS011;23314;51.114;6.900;2023-06-10T17:40:17;4.90;;;3.90;;
37451;SDS011;23314;51.114;6.900;2023-06-10T17:42:42;5.28;;;4.45;;
37451;SDS011;23314;51.114;6.900;2023-06-10T17:45:08;5.10;;;4.30;;
37451;SDS011;23314;51.114;6.900;2023-06-10T17:47:34;4.47;;;4.18;;
37451;SDS011;23314;51.114;6.900;2023-06-10T17:49:59;6.55;;;4.63;;
37451;SDS011;23314;51.114;6.900;2023-06-10T17:52:24;4.72;;;4.25;;
37451;SDS011;23314;51.114;6.900;2023-06-10T17:54:50;7.63;;;4.60;;
37451;SDS011;23314;51.114;6.900;2023-06-10T17:57:15;5.07;;;4.55;;
37451;SDS011;23314;51.114;6.900;2023-06-10T17:59:40;4.95;;;4.55;;
37451;SDS011;23314;51.114;6.900;2023-06-10T18:02:07;6.20;;;4.60;;
37451;SDS011;23314;51.114;6.900;2023-06-10T18:04:33;5.18;;;4.70;;
37451;SDS011;23314;51.114;6.900;2023-06-10T18:06:58;5.40;;;4.47;;
37451;SDS011;23314;51.114;6.900;2023-06-10T18:09:25;6.13;;;4.53;;
37451;SDS011;23314;51.114;6.900;2023-06-10T18:11:51;7.40;;;4.68;;
37451;SDS011;23314;51.114;6.900;2023-06-10T18:14:17;5.40;;;4.90;;
37451;SDS011;23314;51.114;6.900;2023-06-10T18:16:42;5.32;;;4.10;;
37451;SDS011;23314;51.114;6.900;2023-06-10T18:19:08;8.35;;;4.53;;
37451;SDS011;23314;51.114;6.900;2023-06-10T18:21:33;6.25;;;4.93;;
37451;SDS011;23314;51.114;6.900;2023-06-10T18:23:58;5.70;;;4.70;;
37451;SDS011;23314;51.114;6.900;2023-06-10T18:26:24;6.75;;;4.72;;
37451;SDS011;23314;51.114;6.900;2023-06-10T18:28:49;6.45;;;5.05;;
37451;SDS011;23314;51.114;6.900;2023-06-10T18:31:15;9.43;;;5.00;;
37451;SDS011;23314;51.114;6.900;2023-06-10T18:33:40;5.22;;;4.63;;
37451;SDS011;23314;51.114;6.900;2023-06-10T18:36:06;5.35;;;4.80;;
37451;SDS011;23314;51.114;6.900;2023-06-10T18:38:31;5.70;;;4.55;;
37451;SDS011;23314;51.114;6.900;2023-06-10T18:40:56;5.07;;;4.60;;
37451;SDS011;23314;51.114;6.900;2023-06-10T18:43:22;5.32;;;4.57;;
37451;SDS011;23314;51.114;6.900;2023-06-10T18:45:47;4.80;;;4.35;;
37451;SDS011;23314;51.114;6.900;2023-06-10T18:48:13;7.30;;;4.47;;
37451;SDS011;23314;51.114;6.900;2023-06-10T18:50:38;5.47;;;4.97;;
37451;SDS011;23314;51.114;6.900;2023-06-10T18:53:03;6.72;;;4.57;;
37451;SDS011;23314;51.114;6.900;2023-06-10T18:55:29;10.68;;;4.85;;
37451;SDS011;23314;51.114;6.900;2023-06-10T18:57:56;5.95;;;4.60;;
37451;SDS011;23314;51.114;6.900;2023-06-10T19:00:21;7.35;;;4.97;;
37451;SDS011;23314;51.114;6.900;2023-06-10T19:02:46;6.22;;;4.70;;
37451;SDS011;23314;51.114;6.900;2023-06-10T19:05:11;8.43;;;4.72;;
37451;SDS011;23314;51.114;6.900;2023-06-10T19:07:38;7.28;;;4.43;;
37451;SDS011;23314;51.114;6.900;2023-06-10T19:10:04;6.28;;;4.95;;
37451;SDS011;23314;51.114;6.900;2023-06-10T19:12:30;5.45;;;4.93;;
37451;SDS011;23314;51.114;6.900;2023-06-10T19:14:55;5.82;;;4.60;;
37451;SDS011;23314;51.114;6.900;2023-06-10T19:17:21;6.70;;;4.90;;
37451;SDS011;23314;51.114;6.900;2023-06-10T19:19:46;7.28;;;4.95;;
37451;SDS011;23314;51.114;6.900;2023-06-10T19:22:11;7.00;;;5.57;;
37451;SDS011;23314;51.114;6.900;2023-06-10T19:24:37;6.35;;;5.00;;
37451;SDS011;23314;51.114;6.900;2023-06-10T19:27:05;8.27;;;5.00;;
37451;SDS011;23314;51.114;6.900;2023-06-10T19:29:35;6.38;;;4.88;;
37451;SDS011;23314;51.114;6.900;2023-06-10T19:32:01;7.63;;;5.03;;
37451;SDS011;23314;51.114;6.900;2023-06-10T19:34:26;10.52;;;5.38;;
37451;SDS011;23314;51.114;6.900;2023-06-10T19:36:52;11.95;;;6.13;;
37451;SDS011;23314;51.114;6.900;2023-06-10T19:39:17;11.18;;;8.35;;
37451;SDS011;23314;51.114;6.900;2023-06-10T19:41:43;20.55;;;15.98;;
37451;SDS011;23314;51.114;6.900;2023-06-10T19:44:09;13.00;;;9.40;;
37451;SDS011;23314;51.114;6.900;2023-06-10T19:46:35;8.18;;;6.63;;
37451;SDS011;23314;51.114;6.900;2023-06-10T19:49:00;10.75;;;6.10;;
37451;SDS011;23314;51.114;6.900;2023-06-10T19:51:26;7.18;;;6.45;;
37451;SDS011;23314;51.114;6.900;2023-06-10T19:53:51;7.47;;;5.72;;
37451;SDS011;23314;51.114;6.900;2023-06-10T19:56:16;8.30;;;6.05;;
37451;SDS011;23314;51.114;6.900;2023-06-10T19:58:50;8.70;;;6.05;;
